createdAt,value
2023-04-07T00:00:40.879Z,95195.84
2023-04-07T00:03:09.125Z,95191.88
2023-04-07T00:05:37.193Z,95199.56
2023-04-07T00:08:05.322Z,95192.75
2023-04-07T00:10:33.433Z,95193.19
2023-04-07T00:13:01.419Z,95194.44
2023-04-07T00:15:29.512Z,95186.31
2023-04-07T00:17:58.936Z,95185.75
2023-04-07T00:20:26.975Z,95184.66
2023-04-07T00:22:54.884Z,95175.09
2023-04-07T00:25:22.824Z,95167.09
2023-04-07T00:27:50.770Z,95165.13
2023-04-07T00:30:18.887Z,95159.97
2023-04-07T00:32:46.836Z,95156.78
2023-04-07T00:35:16.332Z,95155.19
2023-04-07T00:37:44.310Z,95144.00
2023-04-07T00:40:13.012Z,95146.59
2023-04-07T00:42:41.990Z,95142.00
2023-04-07T00:45:11.606Z,95144.44
2023-04-07T00:47:39.780Z,95140.25
2023-04-07T00:50:08.961Z,95137.25
2023-04-07T00:52:38.352Z,95133.53
2023-04-07T00:55:07.107Z,95134.41
2023-04-07T00:57:35.013Z,95126.22
2023-04-07T01:00:03.149Z,95133.06
2023-04-07T01:02:39.012Z,95131.06
2023-04-07T01:05:14.507Z,95128.28
2023-04-07T01:07:53.801Z,95129.88
2023-04-07T01:10:28.951Z,95129.88
2023-04-07T01:13:09.896Z,95125.94
2023-04-07T01:15:40.998Z,95121.50
2023-04-07T01:18:15.065Z,95123.88
2023-04-07T01:20:45.026Z,95122.66
2023-04-07T01:23:24.435Z,95125.69
2023-04-07T01:26:06.443Z,95122.66
2023-04-07T01:28:57.392Z,95107.50
2023-04-07T01:31:27.842Z,95101.97
2023-04-07T01:33:57.493Z,95101.97
2023-04-07T01:36:28.426Z,95097.19
2023-04-07T01:38:57.469Z,95097.94
2023-04-07T01:41:27.440Z,95100.72
2023-04-07T01:43:56.471Z,95093.16
2023-04-07T01:46:27.316Z,95099.94
2023-04-07T01:48:56.524Z,95095.94
2023-04-07T01:51:27.529Z,95093.91
2023-04-07T01:53:56.382Z,95101.91
2023-04-07T01:56:24.557Z,95098.94
2023-04-07T01:58:54.702Z,95099.09
2023-04-07T02:01:26.095Z,95098.72
2023-04-07T02:03:57.253Z,95093.53
2023-04-07T02:06:31.868Z,95093.72
2023-04-07T02:09:04.359Z,95101.53
2023-04-07T02:11:34.010Z,95089.53
2023-04-07T02:14:08.029Z,95091.13
2023-04-07T02:16:52.396Z,95095.94
2023-04-07T02:19:20.930Z,95094.94
2023-04-07T02:21:52.678Z,95088.72
2023-04-07T02:24:22.050Z,95083.09
2023-04-07T02:26:50.170Z,95085.94
2023-04-07T02:29:18.928Z,95083.50
2023-04-07T02:31:46.980Z,95066.25
2023-04-07T02:34:16.393Z,95063.44
2023-04-07T02:36:44.366Z,95058.66
2023-04-07T02:39:12.356Z,95057.50
2023-04-07T02:41:40.832Z,95061.94
2023-04-07T02:44:08.789Z,95058.19
2023-04-07T02:46:37.411Z,95050.50
2023-04-07T02:49:05.429Z,95046.09
2023-04-07T02:51:34.726Z,95040.00
2023-04-07T02:54:02.811Z,95043.94
2023-04-07T02:56:31.176Z,95036.53
2023-04-07T02:58:59.083Z,95029.47
2023-04-07T03:01:28.055Z,95028.72
2023-04-07T03:03:56.516Z,95023.53
2023-04-07T03:06:27.131Z,95023.53
2023-04-07T03:09:05.884Z,95011.91
2023-04-07T03:11:34.775Z,95007.16
2023-04-07T03:14:02.709Z,94998.84
2023-04-07T03:16:33.388Z,94995.63
2023-04-07T03:19:10.054Z,94998.31
2023-04-07T03:21:42.961Z,95002.75
2023-04-07T03:24:12.514Z,95000.53
2023-04-07T03:26:40.668Z,94998.47
2023-04-07T03:29:17.903Z,94990.50
2023-04-07T03:31:46.603Z,94976.44
2023-04-07T03:34:17.050Z,94979.84
2023-04-07T03:36:44.952Z,94975.84
2023-04-07T03:39:14.236Z,94970.81
2023-04-07T03:41:42.148Z,94958.25
2023-04-07T03:44:11.486Z,94958.03
2023-04-07T03:46:39.988Z,94944.84
2023-04-07T03:49:08.449Z,94949.25
2023-04-07T03:51:36.391Z,94953.66
2023-04-07T03:54:08.870Z,94942.47
2023-04-07T03:56:42.486Z,94937.19
2023-04-07T03:59:10.532Z,94933.09
2023-04-07T04:01:47.049Z,94936.69
2023-04-07T04:04:17.449Z,94954.28
2023-04-07T04:06:46.173Z,94939.56
2023-04-07T04:09:23.541Z,94935.53
2023-04-07T04:11:52.857Z,94944.59
2023-04-07T04:14:20.783Z,94958.84
2023-04-07T04:16:55.028Z,94974.03
2023-04-07T04:19:30.600Z,94993.16
2023-04-07T04:22:01.905Z,95004.41
2023-04-07T04:24:35.193Z,95001.97
2023-04-07T04:27:06.322Z,94998.31
2023-04-07T04:29:34.590Z,95004.25
2023-04-07T04:32:04.392Z,95009.88
2023-04-07T04:34:33.092Z,95020.47
2023-04-07T04:37:01.176Z,95019.84
2023-04-07T04:39:29.298Z,95013.81
2023-04-07T04:41:58.603Z,95019.03
2023-04-07T04:44:34.238Z,95020.19
2023-04-07T04:47:04.453Z,95019.09
2023-04-07T04:49:33.327Z,95009.56
2023-04-07T04:52:04.434Z,95009.97
2023-04-07T04:54:38.772Z,94998.47
2023-04-07T04:57:06.923Z,95010.53
2023-04-07T04:59:42.483Z,95011.34
2023-04-07T05:02:10.556Z,95009.00
2023-04-07T05:04:38.716Z,95007.16
2023-04-07T05:07:29.172Z,95000.97
2023-04-07T05:09:57.610Z,95012.13
2023-04-07T05:12:26.045Z,95014.91
2023-04-07T05:15:00.713Z,95004.69
2023-04-07T05:17:28.666Z,95002.88
2023-04-07T05:19:58.354Z,94999.31
2023-04-07T05:22:36.197Z,94995.72
2023-04-07T05:25:06.542Z,95001.31
2023-04-07T05:27:35.267Z,94994.97
2023-04-07T05:30:12.069Z,94996.72
2023-04-07T05:32:40.529Z,95001.50
2023-04-07T05:35:17.942Z,95003.25
2023-04-07T05:37:52.537Z,94994.44
2023-04-07T05:40:20.674Z,94987.44
2023-04-07T05:42:48.764Z,94980.38
2023-04-07T05:45:18.520Z,94986.31
2023-04-07T05:47:50.681Z,94987.53
2023-04-07T05:50:24.746Z,94987.13
2023-04-07T05:52:53.542Z,94972.69
2023-04-07T05:55:27.310Z,94971.09
2023-04-07T05:57:56.081Z,94978.31
2023-04-07T06:00:28.874Z,94983.16
2023-04-07T06:03:06.162Z,94985.91
2023-04-07T06:05:46.692Z,94995.50
2023-04-07T06:08:15.379Z,94997.09
2023-04-07T06:10:44.353Z,95005.31
2023-04-07T06:13:13.029Z,95005.47
2023-04-07T06:15:42.406Z,95017.47
2023-04-07T06:18:11.160Z,95033.94
2023-04-07T06:20:40.621Z,95043.94
2023-04-07T06:23:08.610Z,95049.69
2023-04-07T06:25:36.512Z,95072.41
2023-04-07T06:28:04.484Z,95078.91
2023-04-07T06:30:32.466Z,95108.06
2023-04-07T06:33:02.300Z,95107.91
2023-04-07T06:35:30.416Z,95104.53
2023-04-07T06:37:58.366Z,95115.69
2023-04-07T06:40:26.271Z,95108.47
2023-04-07T06:42:54.643Z,95105.66
2023-04-07T06:45:37.383Z,95093.22
2023-04-07T06:48:07.836Z,95089.97
2023-04-07T06:50:36.010Z,95093.59
2023-04-07T06:53:03.970Z,95083.59
2023-04-07T06:55:31.918Z,95096.81
2023-04-07T06:57:59.800Z,95106.00
2023-04-07T07:00:30.229Z,95111.19
2023-04-07T07:02:58.304Z,95119.19
2023-04-07T07:05:27.634Z,95125.00
2023-04-07T07:07:55.824Z,95131.19
2023-04-07T07:10:23.800Z,95131.19
2023-04-07T07:12:52.040Z,95137.97
2023-04-07T07:15:20.073Z,95139.56
2023-04-07T07:17:47.974Z,95134.00
2023-04-07T07:20:16.081Z,95139.19
2023-04-07T07:22:45.518Z,95143.19
2023-04-07T07:25:13.452Z,95143.59
2023-04-07T07:27:41.379Z,95149.59
2023-04-07T07:30:10.180Z,95140.38
2023-04-07T07:32:38.129Z,95138.56
2023-04-07T07:35:06.736Z,95140.19
2023-04-07T07:37:34.699Z,95135.97
2023-04-07T07:40:04.247Z,95136.78
2023-04-07T07:42:32.742Z,95146.38
2023-04-07T07:45:01.080Z,95143.19
2023-04-07T07:47:29.146Z,95142.41
2023-04-07T07:49:57.365Z,95142.81
2023-04-07T07:52:25.698Z,95147.59
2023-04-07T07:54:53.619Z,95145.19
2023-04-07T07:57:22.896Z,95147.59
2023-04-07T07:59:50.776Z,95150.00
2023-04-07T08:02:18.786Z,95156.75
2023-04-07T08:04:46.824Z,95149.78
2023-04-07T08:07:14.722Z,95148.00
2023-04-07T08:09:42.778Z,95145.19
2023-04-07T08:12:10.709Z,95153.56
2023-04-07T08:14:40.000Z,95149.59
2023-04-07T08:17:07.945Z,95149.13
2023-04-07T08:19:35.850Z,95147.50
2023-04-07T08:22:03.772Z,95149.53
2023-04-07T08:24:31.701Z,95163.94
2023-04-07T08:26:59.678Z,95164.78
2023-04-07T08:29:27.581Z,95164.81
2023-04-07T08:31:56.932Z,95160.78
2023-04-07T08:34:24.949Z,95159.16
2023-04-07T08:36:52.887Z,95163.16
2023-04-07T08:39:20.845Z,95164.78
2023-04-07T08:41:50.049Z,95162.75
2023-04-07T08:44:19.021Z,95171.75
2023-04-07T08:46:49.256Z,95163.53
2023-04-07T08:49:19.355Z,95165.47
2023-04-07T08:51:48.515Z,95167.59
2023-04-07T08:54:19.108Z,95168.50
2023-04-07T08:56:47.324Z,95171.63
2023-04-07T08:59:18.580Z,95174.00
2023-04-07T09:04:15.755Z,95175.97
2023-04-07T09:06:45.052Z,95184.00
2023-04-07T09:09:13.947Z,95179.22
2023-04-07T09:11:43.289Z,95180.44
2023-04-07T09:14:11.379Z,95172.84
2023-04-07T09:16:39.581Z,95172.63
2023-04-07T09:19:07.825Z,95176.03
2023-04-07T09:21:53.550Z,95174.44
2023-04-07T09:24:26.399Z,95171.13
2023-04-07T09:27:14.577Z,95173.16
2023-04-07T09:29:45.506Z,95171.56
2023-04-07T09:32:14.343Z,95171.13
2023-04-07T09:34:42.679Z,95166.72
2023-04-07T09:37:23.515Z,95169.53
2023-04-07T09:39:53.912Z,95168.78
2023-04-07T09:42:22.445Z,95164.84
2023-04-07T09:44:50.615Z,95166.47
2023-04-07T09:47:18.842Z,95169.22
2023-04-07T09:49:52.465Z,95168.28
2023-04-07T09:52:44.044Z,95164.56
2023-04-07T09:55:12.207Z,95158.69
2023-04-07T09:57:42.003Z,95155.22
2023-04-07T10:00:12.544Z,95154.34
2023-04-07T10:02:44.617Z,95149.47
2023-04-07T10:05:12.946Z,95152.53
2023-04-07T10:07:42.901Z,95148.75
2023-04-07T10:10:11.942Z,95145.59
2023-04-07T10:12:41.568Z,95151.59
2023-04-07T10:15:12.955Z,95145.88
2023-04-07T10:17:42.596Z,95135.03
2023-04-07T10:20:11.876Z,95130.66
2023-04-07T10:22:42.736Z,95126.47
2023-04-07T10:25:15.787Z,95129.53
2023-04-07T10:27:51.269Z,95129.38
2023-04-07T10:30:25.766Z,95127.34
2023-04-07T10:32:55.458Z,95127.19
2023-04-07T10:35:24.024Z,95122.81
2023-04-07T10:38:11.686Z,95113.63
2023-04-07T10:40:42.480Z,95113.88
2023-04-07T10:43:11.555Z,95110.41
2023-04-07T10:45:56.594Z,95096.47
2023-04-07T10:48:24.767Z,95101.44
2023-04-07T10:51:15.543Z,95090.66
2023-04-07T10:54:23.554Z,95095.31
2023-04-07T10:57:13.399Z,95093.28
2023-04-07T10:59:47.159Z,95089.66
2023-04-07T11:02:35.048Z,95085.06
2023-04-07T11:05:04.043Z,95085.16
2023-04-07T11:07:57.750Z,95089.75
2023-04-07T11:10:26.267Z,95098.34
2023-04-07T11:13:06.858Z,95113.59
2023-04-07T11:15:38.487Z,95116.25
2023-04-07T11:18:10.220Z,95103.72
2023-04-07T11:20:53.711Z,95108.13
2023-04-07T11:23:25.317Z,95115.94
2023-04-07T11:25:54.493Z,95122.13
2023-04-07T11:28:23.822Z,95123.28
2023-04-07T11:30:53.994Z,95116.91
2023-04-07T11:33:23.752Z,95128.09
2023-04-07T11:35:57.375Z,95130.28
2023-04-07T11:38:27.306Z,95136.53
2023-04-07T11:40:56.417Z,95139.72
2023-04-07T11:43:27.491Z,95137.28
2023-04-07T11:46:09.083Z,95140.50
2023-04-07T11:48:38.031Z,95128.25
2023-04-07T11:51:07.249Z,95128.72
2023-04-07T11:53:38.236Z,95135.94
2023-04-07T11:56:09.683Z,95138.41
2023-04-07T11:58:39.758Z,95137.44
2023-04-07T12:01:09.009Z,95147.03
2023-04-07T12:03:39.077Z,95144.88
2023-04-07T12:06:07.535Z,95153.94
2023-04-07T12:08:40.254Z,95157.31
2023-04-07T12:11:09.305Z,95163.41
2023-04-07T12:13:38.915Z,95159.50
2023-04-07T12:16:07.268Z,95155.44
2023-04-07T12:18:35.179Z,95156.59
2023-04-07T12:21:03.150Z,95147.53
2023-04-07T12:23:31.101Z,95151.09
2023-04-07T12:25:59.075Z,95139.81
2023-04-07T12:28:27.660Z,95142.09
2023-04-07T12:30:56.994Z,95152.00
2023-04-07T12:33:24.919Z,95152.22
2023-04-07T12:35:52.984Z,95148.13
2023-04-07T12:38:20.985Z,95143.53
2023-04-07T12:40:48.904Z,95135.03
2023-04-07T12:43:16.964Z,95136.97
2023-04-07T12:45:44.953Z,95138.41
2023-04-07T12:48:14.296Z,95134.22
2023-04-07T12:50:42.242Z,95129.69
2023-04-07T12:53:10.166Z,95127.81
2023-04-07T12:55:38.050Z,95121.94
2023-04-07T12:58:05.990Z,95127.94
2023-04-07T13:00:33.900Z,95110.31
2023-04-07T13:03:01.894Z,95114.19
2023-04-07T13:05:31.452Z,95119.75
2023-04-07T13:07:59.744Z,95108.50
2023-04-07T13:10:27.780Z,95112.84
2023-04-07T13:12:55.700Z,95107.16
2023-04-07T13:15:23.605Z,95112.81
2023-04-07T13:17:52.205Z,95106.25
2023-04-07T13:20:21.004Z,95111.59
2023-04-07T13:23:02.923Z,95105.78
2023-04-07T13:25:35.328Z,95104.63
2023-04-07T13:28:03.466Z,95099.16
2023-04-07T13:30:31.413Z,95103.38
2023-04-07T13:32:59.368Z,95106.31
2023-04-07T13:35:27.496Z,95093.53
2023-04-07T13:37:56.773Z,95105.31
2023-04-07T13:40:24.801Z,95109.22
2023-04-07T13:42:52.695Z,95114.53
2023-04-07T13:45:20.688Z,95118.94
2023-04-07T13:47:48.601Z,95127.91
2023-04-07T13:50:16.958Z,95131.25
2023-04-07T13:52:44.921Z,95129.63
2023-04-07T13:55:16.006Z,95132.03
2023-04-07T13:57:43.920Z,95133.66
2023-04-07T14:00:12.972Z,95131.41
2023-04-07T14:02:41.144Z,95124.69
2023-04-07T14:05:09.444Z,95123.50
2023-04-07T14:07:37.358Z,95113.53
2023-04-07T14:10:06.899Z,95116.91
2023-04-07T14:12:37.519Z,95114.06
2023-04-07T14:15:06.296Z,95121.16
2023-04-07T14:17:34.190Z,95122.78
2023-04-07T14:20:02.237Z,95118.16
2023-04-07T14:22:30.149Z,95117.16
2023-04-07T14:24:58.042Z,95114.47
2023-04-07T14:27:26.021Z,95113.28
2023-04-07T14:29:57.876Z,95115.78
2023-04-07T14:32:26.410Z,95118.13
2023-04-07T14:34:54.336Z,95118.97
2023-04-07T14:37:26.214Z,95108.19
2023-04-07T14:40:01.971Z,95112.19
2023-04-07T14:42:30.819Z,95104.16
2023-04-07T14:45:01.733Z,95106.13
2023-04-07T14:47:30.032Z,95105.47
2023-04-07T14:49:58.014Z,95104.69
2023-04-07T14:52:26.011Z,95110.13
2023-04-07T14:54:54.054Z,95108.50
2023-04-07T14:57:22.395Z,95104.88
2023-04-07T14:59:50.366Z,95108.63
2023-04-07T15:02:19.690Z,95113.06
2023-04-07T15:04:47.772Z,95105.56
2023-04-07T15:07:15.714Z,95102.63
2023-04-07T15:09:43.673Z,95113.38
2023-04-07T15:12:11.573Z,95114.78
2023-04-07T15:14:40.141Z,95114.41
2023-04-07T15:17:08.057Z,95116.72
2023-04-07T15:19:37.336Z,95114.00
2023-04-07T15:22:05.340Z,95119.63
2023-04-07T15:24:33.208Z,95118.19
2023-04-07T15:27:01.151Z,95116.91
2023-04-07T15:29:29.076Z,95119.81
2023-04-07T15:31:56.999Z,95123.16
2023-04-07T15:34:24.982Z,95127.50
2023-04-07T15:36:54.238Z,95130.97
2023-04-07T15:39:22.179Z,95122.22
2023-04-07T15:41:50.177Z,95122.75
2023-04-07T15:44:19.738Z,95125.84
2023-04-07T15:46:47.801Z,95126.28
2023-04-07T15:49:23.711Z,95123.97
2023-04-07T15:51:56.112Z,95127.19
2023-04-07T15:54:24.176Z,95127.44
2023-04-07T15:56:52.786Z,95126.09
2023-04-07T15:59:20.695Z,95125.47
2023-04-07T16:01:49.126Z,95120.75
2023-04-07T16:04:17.143Z,95128.28
2023-04-07T16:06:45.140Z,95125.47
2023-04-07T16:09:14.428Z,95127.94
2023-04-07T16:11:42.317Z,95124.94
2023-04-07T16:14:10.243Z,95126.09
2023-04-07T16:16:40.880Z,95124.00
2023-04-07T16:19:08.909Z,95119.22
2023-04-07T16:21:37.050Z,95121.72
2023-04-07T16:24:05.227Z,95119.63
2023-04-07T16:26:35.315Z,95123.91
2023-04-07T16:29:03.397Z,95127.63
2023-04-07T16:31:31.306Z,95124.28
2023-04-07T16:33:59.232Z,95120.56
2023-04-07T16:36:27.480Z,95122.88
2023-04-07T16:38:55.507Z,95122.28
2023-04-07T16:41:23.388Z,95124.72
2023-04-07T16:43:52.697Z,95122.84
2023-04-07T16:46:20.789Z,95113.84
2023-04-07T16:48:48.791Z,95112.56
2023-04-07T16:51:18.041Z,95107.22
2023-04-07T16:53:46.243Z,95120.31
2023-04-07T16:56:17.823Z,95123.88
2023-04-07T16:58:45.858Z,95116.63
2023-04-07T17:01:15.449Z,95125.75
2023-04-07T17:03:43.566Z,95123.47
2023-04-07T17:06:11.531Z,95131.44
2023-04-07T17:08:40.064Z,95134.50
2023-04-07T17:11:08.522Z,95126.19
2023-04-07T17:13:37.637Z,95131.84
2023-04-07T17:16:06.111Z,95126.19
2023-04-07T17:18:35.444Z,95135.03
2023-04-07T17:21:03.375Z,95135.75
2023-04-07T17:23:31.441Z,95139.81
2023-04-07T17:25:59.382Z,95142.97
2023-04-07T17:28:27.575Z,95138.66
2023-04-07T17:30:55.546Z,95147.94
2023-04-07T17:33:23.451Z,95146.03
2023-04-07T17:35:52.781Z,95146.88
2023-04-07T17:38:20.922Z,95145.78
2023-04-07T17:40:48.980Z,95150.25
2023-04-07T17:43:16.855Z,95149.47
2023-04-07T17:45:44.760Z,95160.41
2023-04-07T17:48:12.754Z,95158.19
2023-04-07T17:50:40.907Z,95148.63
2023-04-07T17:53:10.261Z,95160.94
2023-04-07T17:55:38.339Z,95158.13
2023-04-07T17:58:06.570Z,95159.78
2023-04-07T18:00:34.978Z,95167.53
2023-04-07T18:03:03.971Z,95162.56
2023-04-07T18:05:32.123Z,95169.34
2023-04-07T18:08:00.182Z,95174.34
2023-04-07T18:10:30.783Z,95175.50
2023-04-07T18:12:58.711Z,95169.72
2023-04-07T18:15:27.764Z,95176.97
2023-04-07T18:17:56.031Z,95179.06
2023-04-07T18:20:24.101Z,95181.47
2023-04-07T18:22:52.730Z,95189.06
2023-04-07T18:25:20.794Z,95182.72
2023-04-07T18:27:50.079Z,95187.94
2023-04-07T18:30:18.004Z,95192.03
2023-04-07T18:32:46.433Z,95195.59
2023-04-07T18:35:14.666Z,95192.00
2023-04-07T18:37:44.106Z,95200.41
2023-04-07T18:40:13.114Z,95205.19
2023-04-07T18:42:41.145Z,95203.53
2023-04-07T18:45:11.672Z,95204.28
2023-04-07T18:47:39.631Z,95205.13
2023-04-07T18:50:08.799Z,95211.13
2023-04-07T18:52:36.711Z,95207.13
2023-04-07T18:55:05.311Z,95205.31
2023-04-07T18:57:33.216Z,95214.28
2023-04-07T19:00:01.168Z,95212.69
2023-04-07T19:02:31.032Z,95211.91
2023-04-07T19:04:59.089Z,95218.72
2023-04-07T19:07:27.002Z,95215.94
2023-04-07T19:09:55.041Z,95217.94
2023-04-07T19:12:23.292Z,95222.75
2023-04-07T19:14:51.246Z,95227.34
2023-04-07T19:17:19.283Z,95222.75
2023-04-07T19:19:48.762Z,95228.69
2023-04-07T19:22:16.701Z,95234.75
2023-04-07T19:24:44.642Z,95229.41
2023-04-07T19:27:14.630Z,95234.41
2023-04-07T19:29:42.894Z,95246.78
2023-04-07T19:32:10.830Z,95246.13
2023-04-07T19:34:38.746Z,95244.34
2023-04-07T19:37:08.107Z,95233.16
2023-04-07T19:39:36.065Z,95235.56
2023-04-07T19:42:03.993Z,95244.34
2023-04-07T19:44:31.930Z,95241.97
2023-04-07T19:46:59.826Z,95241.97
2023-04-07T19:49:27.732Z,95242.38
2023-04-07T19:51:55.703Z,95239.56
2023-04-07T19:54:25.028Z,95235.19
2023-04-07T19:56:52.986Z,95235.97
2023-04-07T19:59:20.934Z,95246.78
2023-04-07T20:01:49.033Z,95248.41
2023-04-07T20:04:17.184Z,95250.41
2023-04-07T20:06:45.138Z,95254.78
2023-04-07T20:09:13.065Z,95249.59
2023-04-07T20:11:42.410Z,95259.56
2023-04-07T20:14:10.353Z,95257.19
2023-04-07T20:16:38.487Z,95259.78
2023-04-07T20:19:06.476Z,95259.56
2023-04-07T20:21:34.394Z,95263.16
2023-04-07T20:24:02.666Z,95257.16
2023-04-07T20:26:30.682Z,95265.56
2023-04-07T20:29:00.062Z,95255.16
2023-04-07T20:31:28.177Z,95260.16
2023-04-07T20:33:56.136Z,95261.97
2023-04-07T20:36:24.048Z,95266.34
2023-04-07T20:38:52.052Z,95253.97
2023-04-07T20:41:19.933Z,95255.16
2023-04-07T20:43:48.029Z,95261.97
2023-04-07T20:46:17.325Z,95260.34
2023-04-07T20:48:45.286Z,95261.97
2023-04-07T20:51:13.621Z,95263.97
2023-04-07T20:53:41.682Z,95262.34
2023-04-07T20:56:09.619Z,95265.53
2023-04-07T20:58:37.585Z,95263.16
2023-04-07T21:01:05.544Z,95271.97
2023-04-07T21:03:35.960Z,95265.16
2023-04-07T21:06:04.840Z,95260.75
2023-04-07T21:08:32.762Z,95259.94
2023-04-07T21:11:00.760Z,95263.53
2023-04-07T21:13:29.365Z,95268.34
2023-04-07T21:15:59.301Z,95270.34
2023-04-07T21:18:27.508Z,95265.75
2023-04-07T21:21:02.013Z,95268.94
2023-04-07T21:23:31.786Z,95262.75
2023-04-07T21:26:03.461Z,95263.34
2023-04-07T21:28:31.486Z,95260.50
2023-04-07T21:30:59.461Z,95264.69
2023-04-07T21:33:27.406Z,95265.84
2023-04-07T21:35:55.489Z,95258.25
2023-04-07T21:38:24.893Z,95254.25
2023-04-07T21:40:52.805Z,95249.06
2023-04-07T21:43:22.150Z,95260.25
2023-04-07T21:45:50.049Z,95261.84
2023-04-07T21:48:20.896Z,95253.84
2023-04-07T21:50:48.900Z,95250.66
2023-04-07T21:53:16.799Z,95252.25
2023-04-07T21:55:46.142Z,95255.06
2023-04-07T21:58:14.039Z,95250.28
2023-04-07T22:00:41.984Z,95246.69
2023-04-07T22:03:10.177Z,95244.69
2023-04-07T22:05:39.237Z,95245.84
2023-04-07T22:08:07.641Z,95251.66
2023-04-07T22:10:35.539Z,95247.47
2023-04-07T22:13:04.819Z,95237.25
2023-04-07T22:15:32.776Z,95242.28
2023-04-07T22:18:00.704Z,95241.03
2023-04-07T22:20:28.688Z,95239.03
2023-04-07T22:22:57.840Z,95239.03
2023-04-07T22:25:26.512Z,95237.81
2023-04-07T22:27:54.435Z,95235.00
2023-04-07T22:30:24.631Z,95241.41
2023-04-07T22:32:52.851Z,95237.44
2023-04-07T22:35:20.858Z,95237.44
2023-04-07T22:37:48.774Z,95228.66
2023-04-07T22:40:16.742Z,95235.84
2023-04-07T22:42:44.676Z,95238.19
2023-04-07T22:45:12.591Z,95237.59
2023-04-07T22:47:42.034Z,95237.38
2023-04-07T22:50:11.741Z,95242.94
2023-04-07T22:52:39.724Z,95242.53
2023-04-07T22:55:09.014Z,95243.75
2023-04-07T22:57:36.951Z,95236.16
2023-04-07T23:00:05.288Z,95239.34
2023-04-07T23:02:33.559Z,95246.91
2023-04-07T23:05:03.253Z,95243.72
2023-04-07T23:07:31.181Z,95234.53
2023-04-07T23:09:59.129Z,95235.34
2023-04-07T23:12:27.012Z,95248.06
2023-04-07T23:14:55.098Z,95251.25
2023-04-07T23:17:23.046Z,95242.84
2023-04-07T23:19:51.131Z,95245.63
2023-04-07T23:22:20.441Z,95242.44
2023-04-07T23:24:48.362Z,95241.63
2023-04-07T23:27:16.248Z,95240.47
2023-04-07T23:29:44.152Z,95233.75
2023-04-07T23:32:12.573Z,95249.66
2023-04-07T23:34:41.920Z,95240.88
2023-04-07T23:37:09.864Z,95242.81
2023-04-07T23:39:39.250Z,95245.63
2023-04-07T23:42:07.160Z,95248.63
2023-04-07T23:44:35.049Z,95244.44
2023-04-07T23:47:03.007Z,95244.44
2023-04-07T23:49:31.425Z,95243.44
2023-04-07T23:51:59.315Z,95253.94
2023-04-07T23:54:27.201Z,95258.28
2023-04-07T23:56:57.168Z,95254.31
2023-04-07T23:59:25.483Z,95249.13
